Meteo Giornale » Osservazioni meteo Stati Uniti (USA) » Kingsville
ore: 20:56 - Osservazioni Meteo Kingsville
Lat. 27° 30' N Lon. 97° 48' W Alt. 15 metri s.l.m.
29 °C
Poco Nuvoloso
Temp. 24 Ore
26 °C
38 °C
Sud-Est
16.7 Km/h
Dew point 24 °C
Umidità 74 %
Visibilità 10 Km
Il sole sorge alle ore 07:09
Il sole tramonta alle ore 19:53
| Data e Ora | Cielo e Fenomeni | T °C | DP °C | Um. % | Pres. hPa | Vis. km | Vento km/h | |
|---|---|---|---|---|---|---|---|---|
| Oggi h: 20:56 | Poco Nuvoloso | 29 | 24 | 74 | 1013 | 10 | SE 16.7 | |
| Oggi h: 19:56 | Nuvoloso | 30 | 24 | 70 | 1012 | 10 | SE 24 | |
| Oggi h: 18:56 | Poco Nuvoloso | 32 | 22 | 55 | 1012 | 10 | SE 31.5 | |
| Oggi h: 17:56 | Poco Nuvoloso | 34 | 20 | 43 | 1012 | 10 | SE 27.8 | |
| Oggi h: 16:56 | Poco Nuvoloso | 37 | 19 | 35 | 1012 | 10 | SE 25.9 | |
| Oggi h: 15:56 | Nuvoloso | 38 | 20 | 35 | 1012 | 10 | E/SE 24 | |
| Oggi h: 14:56 | Nuvoloso | 37 | 22 | 42 | 1013 | 10 | S/SE 16.7 | |
| Oggi h: 13:56 | Nuvoloso | 37 | 22 | 42 | 1014 | 10 | E/SE 14.8 | |
| Oggi h: 12:56 | Nuvoloso | 38 | 21 | 37 | 1014 | 10 | N 11.1 | |
| Oggi h: 11:56 | Nuvoloso | 36 | 22 | 44 | 1015 | 10 | S 13 | |
| Oggi h: 10:56 | Poco Nuvoloso | 34 | 22 | 49 | 1015 | 10 | S 13 | |
| Oggi h: 09:56 | Poco Nuvoloso | 32 | 24 | 62 | 1015 | 10 | S 20.3 | |
| Oggi h: 08:56 | Sereno | 30 | 25 | 74 | 1014 | 14 | S 20.3 | |
| Oggi h: 07:56 | Sereno | 26 | 24 | 88 | 1014 | 13 | E/SE 7.4 | |
| Oggi h: 06:56 | Poco Nuvoloso | 26 | 24 | 88 | 1014 | 10 | SE 7.4 | |
| Oggi h: 05:56 | Sereno | 26 | 24 | 88 | 1014 | 10 | SE 7.4 | |
| Oggi h: 04:56 | Sereno | 27 | 25 | 88 | 1014 | 10 | SE 9.3 | |
| Oggi h: 01:56 | Sereno | 28 | 25 | 83 | 1014 | 10 | S/SE 11.1 | |
| Oggi h: 00:56 | Sereno | 28 | 25 | 83 | 1014 | 10 | S/SE 13 | |
| Ieri h: 23:56 | Sereno | 28 | 25 | 83 | 1014 | 10 | SE 16.7 | |
| Ieri h: 22:56 | Sereno | 29 | 25 | 79 | 1014 | 10 | SE 14.8 | |
| Ieri h: 21:56 | Sereno | 29 | 24 | 74 | 1014 | 10 | SE 18.5 | |



